Hovedside
METAR-TAF:

METAR-TAF

Lufthavner :

Tacoma / Fort Lewis, Washington, USA

breddegrad: 47-07N, lengdegrad: 122-33W, høyde over havet: 92 m

Gjeldene værobservasjon

Denne rapporten ble laget for 1 time og 20 minutter siden, klokken 16:58 UTC
Flau vind
Temperatur 12°C
Luftfuktighet 76%
Trykk 1022 hPa
Sikt: 16.1 km
Skyfri himmel

METAR: KGRF 091658Z AUTO 00000KT 10SM CLR 12/08 A3017 RMK AO2 SLP221 T01160077 $

Tid: 11:18 (18:18 UTC)

Varsel

Denne rapporten ble laget for 5 timer og 10 minutter siden, klokken 13:08 UTC
Varsel gyldig fra 09. klokken 13 UTC til 10. klokken 19 UTC
Vind 9 kt fra Nord
Sikt 10 km eller mer
Skyfri himmel
Midlertidig
fra 10. klokken 12 UTC til 10. klokken 16 UTC
Vind 6 kt fra skiftende retning
Sikt: 8000 m
dis

TAF: KGRF 091308Z 0913/1019 01009KT 9999 SKC QNH3003INS TEMPO 1012/1016 VRB06KT 8000 BR TX16/0923Z TN02/0913Z

Værobservasjoner og værvarsel for over 4000 flyplasser (METAR- og TAF-rapporter).

Tilgjengelige stasjoner er representert av de røde og gule prikkene på kartet.

Hold musepekeren over prikken for å se navnet på stasjonen.

Klikk så for å se værobservasjoner og -varsler.

For å forandre kartet kan du klikke på den grønne knappen med svart kryss for å zoome inn, på den grønne knappen med strek for å zoome ut, eller på de grønne pilene for å se tilstøtende kart.


METAR-TAF: